Home   Weather   Hungary   Budapest   Past weeks
Flag for Hungary

Past Weather in Budapest, Hungary — Yesterday and Last 2 Weeks

Currently: 82 °F. Passing clouds. (Weather station: Ferenc Liszt International Airport, Hungary). See more current weather

Past Weather in Budapest — Graph

°F

Budapest Temperature Yesterday

Maximum temperature yesterday: 95 °F (at 1:00 pm)
Minimum temperature yesterday: 73 °F (at 4:00 am)
Average temperature yesterday: 84 °F

High & Low Weather Summary for the Past Weeks

 TemperatureHumidityPressure
High100 °F (Jul 12, 5:30 pm)100% (Jul 1, 3:00 am)30.09 "Hg (Jul 1, 3:00 am)
Low52 °F (Jul 3, 5:00 am)22% (Jul 12, 5:30 pm)29.71 "Hg (Jul 3, 3:30 pm)
Average79 °F55%29.89 "Hg
* Reported Jun 30 9:00 pm — Jul 15 9:30 pm, Budapest. Weather by CustomWeather, © 2024

Note: Actual official high and low records may vary slightly from our data, if they occured in-between our weather recording intervals... More about our weather records

Budapest Weather History for the Previous 24 Hours

Scroll right to see more
 ConditionsComfort  
Time TempWeatherWind HumidityBarometerVisibility
9:30 pm
Mon, Jul 15
84 °FPassing clouds.2 mph55%29.89 "HgN/A
9:05 pm88 °FPassing clouds.3 mph49%29.89 "HgN/A
8:30 pm88 °FSunny.5 mph49%29.89 "Hg10 mi
8:00 pm90 °FPassing clouds.6 mph46%29.89 "HgN/A
7:30 pm91 °FPassing clouds.6 mph44%29.89 "HgN/A
7:00 pm95 °FPassing clouds.7 mph36%29.89 "HgN/A
6:30 pm95 °FPassing clouds.8 mph34%29.86 "HgN/A
6:00 pm97 °FPassing clouds.7 mph32%29.86 "HgN/A
5:30 pm95 °FPassing clouds.7 mph36%29.89 "HgN/A
5:00 pm97 °FSunny.5 mph32%29.89 "Hg10 mi
4:30 pm97 °FSunny.5 mph37%29.89 "Hg10 mi
4:00 pm97 °FPassing clouds.7 mph34%29.89 "HgN/A
3:00 pm97 °FScattered clouds.6 mph37%29.92 "HgN/A
2:30 pm93 °FPassing clouds.5 mph39%29.92 "HgN/A
2:00 pm95 °FScattered clouds.5 mph36%29.92 "HgN/A
1:30 pm95 °FScattered showers. Scattered clouds.5 mph36%29.92 "HgN/A
1:00 pm93 °FScattered clouds.7 mph39%29.92 "HgN/A
12:30 pm93 °FPassing clouds.7 mph41%29.92 "HgN/A
12:00 pm91 °FPassing clouds.7 mph41%29.92 "HgN/A
11:30 am91 °FPassing clouds.5 mph38%29.92 "HgN/A
11:00 am90 °FSunny.3 mph41%29.92 "Hg10 mi
10:30 am90 °FPassing clouds.7 mph43%29.92 "HgN/A
10:00 am90 °FPassing clouds.5 mph41%29.92 "HgN/A
9:30 am88 °FPassing clouds.6 mph46%29.92 "HgN/A
9:00 am86 °FPassing clouds.5 mph55%29.92 "HgN/A
8:30 am82 °FPassing clouds.5 mph62%29.92 "HgN/A
8:00 am79 °FPassing clouds.6 mph74%29.92 "HgN/A
7:30 am77 °FSunny.9 mph74%29.92 "Hg10 mi
7:00 am73 °FPassing clouds.3 mph78%29.92 "HgN/A
6:30 am73 °FSunny.6 mph74%29.92 "Hg10 mi
6:00 am72 °FSunny.5 mph83%29.92 "Hg10 mi
5:30 am72 °FSunny.5 mph78%29.92 "Hg10 mi
5:00 am73 °FPassing clouds.6 mph74%29.92 "HgN/A
4:33 am73 °FThundershowers. Passing clouds.8 mph78%29.92 "HgN/A
4:00 am73 °FThunderstorms. Partly cloudy.12 mph78%29.92 "HgN/A
3:07 am75 °FThunderstorms. Passing clouds.7 mph78%29.92 "HgN/A
3:00 am75 °FThunderstorms. Passing clouds.3 mph78%29.89 "HgN/A
2:30 am75 °FClear.5 mph78%29.89 "Hg10 mi
2:00 am73 °FClear.2 mph83%29.89 "Hg10 mi
1:30 am73 °FClear.2 mph83%29.89 "Hg10 mi
1:00 am75 °FClear.1 mph78%29.89 "Hg10 mi
12:30 am77 °FPassing clouds.6 mph74%29.89 "HgN/A
12:00 am79 °FPassing clouds.6 mph70%29.89 "HgN/A
11:30 pm
Sun, Jul 14
79 °FClear.5 mph70%29.89 "Hg10 mi
11:00 pm79 °FClear.3 mph70%29.89 "Hg10 mi
10:30 pm79 °FClear.5 mph70%29.89 "Hg10 mi
10:00 pm81 °FClear.3 mph66%29.89 "Hg10 mi
Weather by CustomWeather, © 2024

See weather overview